Time;durP1;ratioP1;P1;durP2;ratioP2;P2;SDS_P1;SDS_P2;PMS_P1;PMS_P2;Temp;Humidity;BMP_temperature;BMP_pressure;BME280_temperature;BME280_humidity;BME280_pressure;Samples;Min_cycle;Max_cycle;Signal;HPM_P1;HPM_P2
2021/10/19 00:01:48;;;;;;;26.80;20.80;;;10.70;99.10;;;;;;5007974;28;20033;-76
2021/10/19 00:04:32;;;;;;;30.08;21.45;;;10.70;99.20;;;;;;5022442;28;20097;-75
2021/10/19 00:07:16;;;;;;;31.50;22.83;;;10.70;99.20;;;;;;5005936;28;20108;-76
2021/10/19 00:10:00;;;;;;;29.52;23.27;;;10.60;99.30;;;;;;5007409;28;20096;-76
2021/10/19 00:12:44;;;;;;;28.33;23.40;;;10.60;99.50;;;;;;4995547;28;20126;-76
2021/10/19 00:15:28;;;;;;;33.70;22.58;;;10.60;99.50;;;;;;5024734;28;20280;-77
2021/10/19 00:18:12;;;;;;;34.33;23.55;;;10.60;99.50;;;;;;5026054;28;20049;-76
2021/10/19 00:20:56;;;;;;;28.02;21.55;;;10.60;99.50;;;;;;5008711;28;20036;-75
2021/10/19 00:23:41;;;;;;;28.80;22.67;;;10.60;99.50;;;;;;5009156;28;20092;-75
2021/10/19 00:26:25;;;;;;;30.55;22.55;;;10.50;99.50;;;;;;4994011;28;20268;-77
2021/10/19 00:29:09;;;;;;;28.85;22.92;;;10.50;99.70;;;;;;5004287;28;20088;-76
2021/10/19 00:31:53;;;;;;;28.67;22.42;;;10.50;99.80;;;;;;4992073;28;20105;-76
2021/10/19 00:34:37;;;;;;;29.33;22.33;;;10.50;99.60;;;;;;5021458;28;20045;-78
2021/10/19 00:37:21;;;;;;;29.20;22.70;;;10.60;99.40;;;;;;5008896;28;20045;-76
2021/10/19 00:40:07;;;;;;;28.88;22.42;;;10.50;99.60;;;;;;5021890;28;20044;-76
2021/10/19 00:42:51;;;;;;;32.50;23.67;;;10.40;99.80;;;;;;5021712;28;20037;-77
2021/10/19 00:45:35;;;;;;;27.47;21.40;;;10.50;99.70;;;;;;5022230;28;20037;-76
2021/10/19 00:48:21;;;;;;;28.95;23.48;;;10.40;99.90;;;;;;5006997;28;20287;-76
2021/10/19 00:51:05;;;;;;;30.10;21.90;;;10.40;99.90;;;;;;5022279;28;20044;-76
2021/10/19 00:53:50;;;;;;;31.23;24.30;;;10.50;99.80;;;;;;5008288;28;20068;-76
2021/10/19 00:56:38;;;;;;;31.33;22.55;;;10.40;99.80;;;;;;5007470;28;20448;-76
2021/10/19 00:59:25;;;;;;;28.52;22.95;;;10.40;99.90;;;;;;5022061;28;20060;-80
2021/10/19 01:02:10;;;;;;;29.58;22.88;;;10.40;99.80;;;;;;5009522;28;20060;-80
2021/10/19 01:04:55;;;;;;;29.58;22.50;;;10.40;99.90;;;;;;4995570;28;20041;-80
2021/10/19 01:07:40;;;;;;;30.73;22.52;;;10.40;99.90;;;;;;5006714;28;20117;-79
2021/10/19 01:10:24;;;;;;;27.10;22.10;;;10.40;99.90;;;;;;5007163;28;20061;-80
2021/10/19 01:13:09;;;;;;;30.63;22.48;;;10.40;99.80;;;;;;5009387;28;20080;-78
2021/10/19 01:16:03;;;;;;;31.45;23.20;;;10.40;99.90;;;;;;4998723;28;20049;-80
2021/10/19 01:18:47;;;;;;;31.42;24.45;;;10.40;99.80;;;;;;4996128;28;20038;-79
2021/10/19 01:21:31;;;;;;;30.63;24.03;;;10.40;99.90;;;;;;4991613;28;20504;-79
2021/10/19 01:24:15;;;;;;;29.13;22.23;;;10.40;99.80;;;;;;4991677;28;20296;-78
2021/10/19 01:26:59;;;;;;;28.60;22.80;;;10.50;99.80;;;;;;5006138;28;20065;-79
2021/10/19 01:29:43;;;;;;;30.00;22.83;;;10.50;99.80;;;;;;4978800;28;20041;-79
2021/10/19 01:32:27;;;;;;;28.83;23.17;;;10.50;99.80;;;;;;4980236;28;20494;-79
2021/10/19 01:35:12;;;;;;;34.07;23.27;;;10.50;99.60;;;;;;4991963;28;20037;-80
2021/10/19 01:37:56;;;;;;;32.20;23.05;;;10.50;99.60;;;;;;4995284;28;20081;-80
2021/10/19 01:40:41;;;;;;;29.35;22.95;;;10.50;99.60;;;;;;4986105;28;20040;-79
2021/10/19 01:43:27;;;;;;;28.13;22.45;;;10.40;99.70;;;;;;5014264;28;20042;-79
2021/10/19 01:46:11;;;;;;;29.33;22.88;;;10.50;99.60;;;;;;5003668;28;20084;-79
2021/10/19 01:48:56;;;;;;;30.07;23.70;;;10.50;99.80;;;;;;4993705;28;20053;-79
2021/10/19 01:51:40;;;;;;;29.25;22.70;;;10.50;99.60;;;;;;4988742;28;20470;-80
2021/10/19 01:54:24;;;;;;;31.97;24.30;;;10.50;99.80;;;;;;5003142;28;20042;-80
2021/10/19 01:57:08;;;;;;;30.92;23.85;;;10.40;99.90;;;;;;4987363;28;20028;-79
2021/10/19 01:59:52;;;;;;;30.83;23.48;;;10.40;99.90;;;;;;4989573;28;20065;-79
2021/10/19 02:02:38;;;;;;;34.40;24.30;;;10.30;99.90;;;;;;4987530;28;20073;-78
2021/10/19 02:05:22;;;;;;;31.52;25.30;;;10.30;99.90;;;;;;4988452;28;20049;-78
2021/10/19 02:08:06;;;;;;;33.38;24.75;;;10.40;99.90;;;;;;5004429;28;20081;-79
2021/10/19 02:10:51;;;;;;;30.40;23.38;;;10.40;99.90;;;;;;5004039;28;20085;-78
2021/10/19 02:13:35;;;;;;;34.70;24.83;;;10.40;99.90;;;;;;4989660;28;20071;-77
2021/10/19 02:16:19;;;;;;;31.77;24.20;;;10.40;99.90;;;;;;4974469;28;20041;-79
2021/10/19 02:19:03;;;;;;;31.47;23.17;;;10.40;99.90;;;;;;4993785;28;20096;-79
2021/10/19 02:21:47;;;;;;;31.13;23.98;;;10.40;99.90;;;;;;5006833;28;20037;-79
2021/10/19 02:24:31;;;;;;;34.67;25.07;;;10.30;99.90;;;;;;5010703;28;20037;-81
2021/10/19 02:27:15;;;;;;;31.40;23.25;;;10.50;99.90;;;;;;4992609;28;20036;-80
2021/10/19 02:29:59;;;;;;;33.17;23.98;;;10.50;99.90;;;;;;4993375;28;20425;-80
2021/10/19 02:32:44;;;;;;;31.70;23.80;;;10.40;99.90;;;;;;4986734;28;1038019;-81
2021/10/19 02:35:28;;;;;;;33.60;23.63;;;10.40;99.90;;;;;;5008331;28;20068;-79
2021/10/19 02:38:12;;;;;;;30.30;23.58;;;10.40;99.90;;;;;;5009449;28;20097;-79
2021/10/19 02:40:56;;;;;;;34.53;24.67;;;10.50;99.90;;;;;;5024400;28;20033;-79
2021/10/19 02:43:40;;;;;;;31.15;22.77;;;10.50;99.90;;;;;;5026761;28;20045;-79
2021/10/19 02:46:25;;;;;;;33.33;24.95;;;10.50;99.90;;;;;;5010586;28;20088;-79
2021/10/19 02:49:09;;;;;;;31.15;24.58;;;10.30;99.90;;;;;;4983405;28;20053;-79
2021/10/19 02:51:54;;;;;;;34.80;25.00;;;10.30;99.90;;;;;;5010051;28;20040;-78
2021/10/19 02:54:38;;;;;;;31.42;23.95;;;10.20;99.90;;;;;;5008977;28;20080;-79
2021/10/19 02:57:23;;;;;;;32.13;23.93;;;10.30;99.90;;;;;;4995635;28;20098;-79
2021/10/19 03:00:08;;;;;;;31.70;25.00;;;10.20;99.90;;;;;;5010608;28;20256;-78
2021/10/19 03:02:52;;;;;;;34.88;24.40;;;10.20;99.90;;;;;;4996285;28;20048;-78
2021/10/19 03:05:37;;;;;;;34.10;26.25;;;10.20;99.90;;;;;;5006783;28;20091;-78
2021/10/19 03:08:22;;;;;;;35.58;25.30;;;10.10;99.90;;;;;;5007717;28;20049;-79
2021/10/19 03:11:06;;;;;;;36.20;25.90;;;10.10;99.90;;;;;;5024430;28;20138;-78
2021/10/19 03:13:51;;;;;;;34.53;25.27;;;10.10;99.90;;;;;;5008865;28;20088;-80
2021/10/19 03:16:35;;;;;;;37.35;25.73;;;9.90;99.90;;;;;;5009233;28;20049;-79
2021/10/19 03:19:19;;;;;;;34.97;25.65;;;10.00;99.90;;;;;;4974035;28;20085;-76
2021/10/19 03:22:04;;;;;;;34.05;25.25;;;10.00;99.90;;;;;;5002977;28;20045;-76
2021/10/19 03:24:48;;;;;;;37.53;26.38;;;10.00;99.90;;;;;;5004409;28;20413;-76
2021/10/19 03:27:32;;;;;;;33.00;24.83;;;10.10;99.90;;;;;;5002241;28;20045;-75
2021/10/19 03:30:17;;;;;;;39.10;26.98;;;10.10;99.90;;;;;;5002215;28;20088;-76
2021/10/19 03:33:04;;;;;;;36.80;26.08;;;10.20;99.90;;;;;;5001832;28;20045;-76
2021/10/19 03:35:48;;;;;;;40.85;27.25;;;10.10;99.90;;;;;;5003923;28;20065;-76
2021/10/19 03:38:34;;;;;;;39.58;26.58;;;10.10;99.90;;;;;;4989926;28;20053;-76
2021/10/19 03:41:18;;;;;;;33.35;24.70;;;10.10;99.90;;;;;;4988471;28;20090;-75
2021/10/19 03:44:02;;;;;;;35.75;26.00;;;10.20;99.90;;;;;;5004063;28;20041;-76
2021/10/19 03:46:47;;;;;;;34.45;25.73;;;10.20;99.90;;;;;;4987151;28;20041;-77
2021/10/19 03:49:31;;;;;;;38.08;27.35;;;10.10;99.90;;;;;;4987999;28;20048;-76
2021/10/19 03:52:15;;;;;;;40.90;26.42;;;10.20;99.90;;;;;;5000962;28;20517;-75
2021/10/19 03:54:59;;;;;;;33.72;25.77;;;10.20;99.90;;;;;;5002356;28;20041;-76
2021/10/19 03:57:43;;;;;;;37.85;27.73;;;10.20;99.90;;;;;;5001589;28;20490;-75
2021/10/19 04:00:27;;;;;;;37.42;27.05;;;10.20;99.90;;;;;;4986756;28;20084;-75
2021/10/19 04:03:12;;;;;;;35.97;26.17;;;10.20;99.90;;;;;;4986915;28;20049;-76
2021/10/19 04:05:56;;;;;;;37.55;27.98;;;10.30;99.90;;;;;;4988399;28;20049;-76
2021/10/19 04:08:41;;;;;;;37.53;27.30;;;10.30;99.90;;;;;;5001026;28;20061;-76
2021/10/19 04:11:25;;;;;;;33.08;24.75;;;10.30;99.90;;;;;;5000064;28;20045;-76
2021/10/19 04:14:09;;;;;;;36.23;26.07;;;10.30;99.90;;;;;;4998326;28;20036;-76
2021/10/19 04:16:53;;;;;;;33.08;25.15;;;10.30;99.90;;;;;;5000733;28;20281;-76
2021/10/19 04:19:37;;;;;;;34.53;24.15;;;10.30;99.90;;;;;;5000495;28;20451;-77
2021/10/19 04:22:22;;;;;;;35.80;26.25;;;10.40;99.90;;;;;;4984896;28;20028;-76
2021/10/19 04:25:06;;;;;;;;;;;10.40;99.90;;;;;;4986734;28;20093;-77
2021/10/19 04:27:51;;;;;;;35.83;25.50;;;10.40;99.90;;;;;;4998811;28;19912;-77
2021/10/19 04:30:37;;;;;;;34.92;25.92;;;10.40;99.90;;;;;;5008507;28;20053;-78
2021/10/19 04:33:21;;;;;;;32.15;25.23;;;10.40;99.90;;;;;;5006971;28;20056;-77
2021/10/19 04:36:06;;;;;;;41.10;27.50;;;10.40;99.90;;;;;;5006137;28;20113;-77
2021/10/19 04:38:50;;;;;;;42.50;29.15;;;10.30;99.90;;;;;;5006749;28;20085;-77
2021/10/19 04:41:36;;;;;;;37.47;27.45;;;10.30;99.90;;;;;;4992787;28;20128;-76
2021/10/19 04:44:23;;;;;;;36.78;27.13;;;10.50;99.90;;;;;;4992832;28;20054;-76
2021/10/19 04:47:08;;;;;;;35.80;24.52;;;10.50;99.90;;;;;;5020618;28;20550;-77
2021/10/19 04:49:52;;;;;;;33.03;25.27;;;10.40;99.90;;;;;;4980962;28;20045;-76
2021/10/19 04:52:40;;;;;;;36.10;26.30;;;10.40;99.90;;;;;;5007409;28;20077;-80
2021/10/19 04:55:24;;;;;;;33.90;25.75;;;10.50;99.90;;;;;;5008897;28;20052;-80
2021/10/19 04:58:09;;;;;;;34.53;25.27;;;10.40;99.90;;;;;;4992623;28;20032;-79
2021/10/19 05:00:53;;;;;;;38.00;26.57;;;10.40;99.90;;;;;;4991766;28;20461;-79
2021/10/19 05:03:40;;;;;;;38.47;26.90;;;10.40;99.90;;;;;;5005118;28;20104;-78
2021/10/19 05:06:25;;;;;;;36.10;25.35;;;10.50;99.90;;;;;;5007094;28;20264;-78
2021/10/19 05:09:09;;;;;;;;;;;10.50;99.90;;;;;;5007779;28;20033;-78
2021/10/19 05:11:53;;;;;;;35.47;26.45;;;10.50;99.90;;;;;;5018437;28;19921;-80
2021/10/19 05:14:38;;;;;;;38.95;25.98;;;10.50;99.90;;;;;;4992202;28;20041;-82
2021/10/19 05:17:22;;;;;;;40.00;27.70;;;10.50;99.90;;;;;;4994453;28;20135;-79
2021/10/19 05:20:07;;;;;;;37.42;25.95;;;10.50;99.90;;;;;;4987072;28;20045;-78
2021/10/19 05:22:51;;;;;;;;;;;10.60;99.90;;;;;;4974403;28;20054;-79
2021/10/19 05:25:36;;;;;;;45.20;26.38;;;10.60;99.90;;;;;;4987308;28;19913;-80
2021/10/19 05:28:20;;;;;;;34.05;24.88;;;10.60;99.90;;;;;;4992008;28;20065;-79
2021/10/19 05:31:05;;;;;;;42.00;28.52;;;10.60;99.90;;;;;;4980123;28;20048;-80
2021/10/19 05:33:49;;;;;;;37.97;26.35;;;10.60;99.90;;;;;;5007780;28;20044;-78
2021/10/19 05:36:33;;;;;;;37.83;26.70;;;10.60;99.90;;;;;;4993602;28;20108;-80
2021/10/19 05:39:18;;;;;;;44.33;25.67;;;10.60;99.90;;;;;;5006401;28;20033;-80
2021/10/19 05:42:02;;;;;;;36.95;25.95;;;10.70;99.90;;;;;;5020422;28;20037;-79
2021/10/19 05:44:47;;;;;;;39.13;26.02;;;10.70;99.90;;;;;;5007956;28;20405;-78
2021/10/19 05:47:32;;;;;;;33.70;25.15;;;10.70;99.90;;;;;;4980079;28;20041;-79
2021/10/19 05:50:17;;;;;;;38.25;26.42;;;10.80;99.90;;;;;;4992010;28;20091;-78
2021/10/19 05:53:02;;;;;;;37.55;25.77;;;10.70;99.90;;;;;;5007049;28;20100;-79
2021/10/19 05:55:46;;;;;;;35.67;24.73;;;10.80;99.90;;;;;;5006522;28;20088;-80
2021/10/19 05:58:30;;;;;;;38.67;25.07;;;10.80;99.90;;;;;;4993883;28;20837;-83
2021/10/19 06:01:14;;;;;;;34.53;24.50;;;10.80;99.90;;;;;;4996190;28;20033;-80
2021/10/19 06:03:59;;;;;;;36.00;25.42;;;10.80;99.90;;;;;;4997370;28;20033;-76
2021/10/19 06:06:54;;;;;;;38.03;24.23;;;10.90;99.90;;;;;;5009253;28;20537;-76
2021/10/19 06:09:38;;;;;;;36.30;24.90;;;10.90;99.90;;;;;;4997172;28;20084;-75
2021/10/19 06:12:23;;;;;;;38.38;25.08;;;10.90;99.90;;;;;;4994608;28;20053;-76
2021/10/19 06:15:07;;;;;;;36.43;24.37;;;10.80;99.90;;;;;;5008429;28;20052;-76
2021/10/19 06:17:52;;;;;;;;;;;10.90;99.90;;;;;;5027811;28;20445;-76
2021/10/19 06:20:36;;;;;;;33.40;23.02;;;10.90;99.90;;;;;;5014203;28;19959;-77
2021/10/19 06:23:20;;;;;;;34.47;22.85;;;10.90;99.90;;;;;;4995159;28;20041;-77
2021/10/19 06:26:05;;;;;;;30.42;21.88;;;11.00;99.90;;;;;;5023766;28;20087;-75
2021/10/19 06:28:49;;;;;;;30.20;22.40;;;11.00;99.90;;;;;;5024743;28;20041;-76
2021/10/19 06:31:42;;;;;;;34.50;22.85;;;11.00;99.90;;;;;;4997209;28;20118;-78
2021/10/19 06:34:26;;;;;;;44.65;25.48;;;11.00;99.90;;;;;;5017076;28;20060;-78
2021/10/19 06:37:13;;;;;;;42.05;28.83;;;11.00;99.90;;;;;;5013687;28;20041;-76
2021/10/19 06:40:00;;;;;;;31.63;22.25;;;11.10;99.90;;;;;;5011619;28;20045;-78
2021/10/19 06:42:45;;;;;;;30.83;20.05;;;11.10;99.50;;;;;;5011594;28;20055;-78
2021/10/19 06:45:29;;;;;;;26.70;20.00;;;11.20;99.40;;;;;;4996594;28;20084;-77
2021/10/19 06:48:16;;;;;;;23.98;18.70;;;11.20;99.40;;;;;;5027291;28;20111;-77
2021/10/19 06:51:02;;;;;;;24.95;19.20;;;11.20;99.10;;;;;;5025390;28;20041;-77
2021/10/19 06:53:46;;;;;;;25.70;19.20;;;11.20;99.10;;;;;;5009742;28;20033;-77
2021/10/19 06:56:30;;;;;;;28.88;19.17;;;11.20;99.30;;;;;;5010355;28;20465;-76
2021/10/19 06:59:15;;;;;;;29.80;17.52;;;11.20;98.90;;;;;;5009842;28;20038;-81
2021/10/19 07:01:59;;;;;;;24.05;17.08;;;11.20;98.90;;;;;;4992045;28;20041;-80
2021/10/19 07:04:46;;;;;;;24.20;17.87;;;11.30;98.80;;;;;;4987082;28;20037;-80
2021/10/19 07:07:31;;;;;;;24.20;17.90;;;11.30;98.70;;;;;;4993013;28;20497;-80
2021/10/19 07:10:16;;;;;;;25.23;18.10;;;11.40;98.60;;;;;;4980012;28;20092;-82
2021/10/19 07:13:01;;;;;;;24.20;17.70;;;11.50;98.50;;;;;;4998558;28;20505;-80
2021/10/19 07:15:45;;;;;;;38.40;18.35;;;11.50;98.30;;;;;;4997352;28;20048;-80
2021/10/19 07:18:29;;;;;;;25.40;18.37;;;11.60;98.40;;;;;;4998466;28;20052;-81
2021/10/19 07:21:14;;;;;;;24.27;18.10;;;11.60;98.20;;;;;;4996855;28;20268;-76
2021/10/19 07:23:59;;;;;;;22.02;17.67;;;11.60;98.30;;;;;;4996756;28;20065;-79
2021/10/19 07:26:43;;;;;;;20.60;16.00;;;11.50;98.40;;;;;;4995573;28;20055;-77
2021/10/19 07:29:31;;;;;;;25.02;18.92;;;11.50;98.60;;;;;;5010017;28;20036;-79
2021/10/19 07:32:32;;;;;;;26.83;17.40;;;11.50;98.60;;;;;;5022140;28;20049;-77
2021/10/19 07:35:18;;;;;;;23.65;17.40;;;11.60;98.70;;;;;;4995159;28;20065;-79
2021/10/19 07:38:04;;;;;;;21.38;16.48;;;11.60;98.50;;;;;;5009207;28;20114;-80
2021/10/19 07:40:48;;;;;;;21.52;15.98;;;11.60;98.70;;;;;;5008573;28;20086;-78
2021/10/19 07:43:32;;;;;;;18.77;15.57;;;11.60;98.60;;;;;;5009392;28;20045;-78
2021/10/19 07:46:16;;;;;;;20.30;15.02;;;11.80;98.40;;;;;;5010768;28;20450;-80
2021/10/19 07:49:00;;;;;;;19.25;15.50;;;11.80;98.20;;;;;;4992968;28;20117;-78
2021/10/19 07:51:45;;;;;;;25.15;15.90;;;11.90;98.00;;;;;;4993307;28;20045;-78
2021/10/19 07:54:33;;;;;;;17.58;13.52;;;11.80;98.00;;;;;;4980587;28;20060;-79
2021/10/19 07:57:17;;;;;;;20.15;15.02;;;12.00;99.30;;;;;;4994028;28;20106;-78
2021/10/19 08:00:01;;;;;;;19.00;15.45;;;12.30;98.00;;;;;;4993290;28;20036;-77
2021/10/19 08:02:46;;;;;;;21.70;15.88;;;12.30;97.40;;;;;;5006560;28;20037;-79
2021/10/19 08:05:31;;;;;;;20.83;14.40;;;12.30;97.10;;;;;;4994952;28;20091;-78
2021/10/19 08:08:17;;;;;;;21.75;14.63;;;12.40;97.00;;;;;;5011261;28;20041;-78
2021/10/19 08:11:01;;;;;;;22.88;15.10;;;12.40;97.00;;;;;;5008981;28;20041;-76
2021/10/19 08:13:46;;;;;;;20.15;15.10;;;12.40;97.10;;;;;;4995847;28;20041;-76
2021/10/19 08:16:30;;;;;;;17.80;14.70;;;12.40;97.10;;;;;;5009219;28;20069;-77
2021/10/19 08:19:14;;;;;;;22.13;14.90;;;12.40;97.30;;;;;;5024189;28;20049;-76
2021/10/19 08:21:58;;;;;;;20.27;15.10;;;12.40;97.10;;;;;;5025515;28;20077;-80
2021/10/19 08:24:42;;;;;;;21.20;15.05;;;12.40;96.60;;;;;;5009232;28;20501;-81
2021/10/19 08:27:26;;;;;;;19.00;14.97;;;12.40;96.80;;;;;;5027860;28;20077;-80
2021/10/19 08:30:13;;;;;;;20.90;14.43;;;12.40;96.70;;;;;;4997195;28;20072;-79
2021/10/19 08:32:58;;;;;;;20.90;14.73;;;12.50;96.70;;;;;;5009945;28;20080;-80
2021/10/19 08:35:42;;;;;;;19.25;15.13;;;12.60;96.60;;;;;;5012392;28;20096;-80
2021/10/19 08:38:26;;;;;;;20.13;15.43;;;12.60;96.60;;;;;;5008016;28;20060;-80
2021/10/19 08:41:15;;;;;;;18.45;15.07;;;12.60;96.80;;;;;;5009137;28;20094;-80
2021/10/19 08:43:59;;;;;;;24.15;15.27;;;12.80;96.70;;;;;;4998711;28;20052;-78
2021/10/19 08:46:44;;;;;;;19.15;15.57;;;13.00;96.50;;;;;;5010053;28;20041;-79
2021/10/19 08:49:29;;;;;;;20.10;16.15;;;13.20;96.20;;;;;;4996838;28;20045;-80
2021/10/19 08:52:13;;;;;;;21.15;14.40;;;13.10;95.90;;;;;;5009533;28;20095;-80
2021/10/19 08:54:58;;;;;;;22.02;13.70;;;13.20;96.00;;;;;;5024765;28;20049;-80
2021/10/19 08:57:43;;;;;;;21.63;16.27;;;13.30;95.80;;;;;;5009153;28;20084;-80
2021/10/19 09:00:27;;;;;;;16.38;14.43;;;13.30;95.80;;;;;;5008042;28;20460;-81
2021/10/19 09:03:12;;;;;;;18.33;14.13;;;13.40;95.60;;;;;;5007408;28;20092;-80
2021/10/19 09:05:56;;;;;;;21.50;14.82;;;13.50;95.70;;;;;;5008220;28;20475;-80
2021/10/19 09:08:50;;;;;;;17.92;14.50;;;13.70;95.50;;;;;;4994722;28;20066;-81
2021/10/19 09:11:45;;;;;;;20.10;14.65;;;13.70;95.40;;;;;;5008061;28;20045;-79
2021/10/19 09:14:37;;;;;;;16.88;14.10;;;13.80;95.50;;;;;;4994924;28;20089;-81
2021/10/19 09:17:21;;;;;;;22.27;14.38;;;13.90;95.70;;;;;;5018745;28;20186;-77
2021/10/19 09:20:16;;;;;;;17.27;13.73;;;14.00;95.20;;;;;;5006010;28;20037;-78
2021/10/19 09:23:02;;;;;;;18.15;12.73;;;14.10;95.20;;;;;;4993623;28;20112;-76
2021/10/19 09:25:50;;;;;;;17.65;12.80;;;14.10;95.20;;;;;;5005298;28;20033;-77
2021/10/19 09:28:39;;;;;;;16.17;11.80;;;14.30;94.80;;;;;;5005870;28;20036;-76
2021/10/19 09:31:23;;;;;;;16.88;12.63;;;14.20;95.00;;;;;;5006122;28;20041;-76
2021/10/19 09:34:12;;;;;;;17.25;12.90;;;14.20;95.30;;;;;;4997382;28;20458;-77
2021/10/19 09:36:57;;;;;;;13.48;11.00;;;14.20;95.30;;;;;;5024659;28;20056;-78
2021/10/19 09:39:44;;;;;;;13.63;11.68;;;14.20;95.10;;;;;;5010487;28;20099;-77
2021/10/19 09:42:28;;;;;;;15.50;11.65;;;14.40;94.80;;;;;;4998858;28;20037;-76
2021/10/19 09:45:12;;;;;;;14.52;11.38;;;14.40;95.00;;;;;;4996962;28;20080;-77
2021/10/19 09:47:58;;;;;;;15.13;11.63;;;14.50;94.90;;;;;;5011558;28;20041;-77
2021/10/19 09:50:46;;;;;;;15.90;11.55;;;14.80;94.30;;;;;;4997371;28;20044;-82
2021/10/19 09:53:31;;;;;;;17.02;11.82;;;15.00;94.20;;;;;;5025001;28;20040;-80
2021/10/19 09:56:18;;;;;;;12.95;10.35;;;15.10;93.90;;;;;;5015378;28;20056;-80
2021/10/19 09:59:04;;;;;;;14.85;10.88;;;15.10;94.10;;;;;;5001065;28;20064;-80
2021/10/19 10:01:49;;;;;;;16.80;10.93;;;15.20;93.80;;;;;;5026654;28;20037;-79
2021/10/19 10:04:34;;;;;;;;;;;15.20;93.90;;;;;;5013343;28;20040;-79
2021/10/19 10:07:18;;;;;;;15.43;10.77;;;15.20;93.80;;;;;;5012361;28;20423;-79
2021/10/19 10:10:04;;;;;;;14.20;10.85;;;15.30;93.60;;;;;;5011851;28;20036;-79
2021/10/19 10:13:01;;;;;;;13.98;10.35;;;15.30;93.50;;;;;;5018365;28;20094;-78
2021/10/19 10:15:46;;;;;;;11.85;9.40;;;15.50;93.50;;;;;;5014085;28;20036;-77
2021/10/19 10:18:32;;;;;;;12.45;10.57;;;15.50;93.40;;;;;;4996278;28;20061;-76
2021/10/19 10:21:28;;;;;;;11.75;10.15;;;15.70;93.30;;;;;;5011305;28;20049;-77
2021/10/19 10:24:12;;;;;;;13.73;10.00;;;15.80;93.10;;;;;;5025892;28;20448;-78
2021/10/19 10:27:08;;;;;;;14.00;10.95;;;15.90;93.30;;;;;;5010436;28;20115;-77
2021/10/19 10:29:52;;;;;;;13.30;10.57;;;15.70;93.50;;;;;;5023083;28;20041;-79
2021/10/19 10:32:37;;;;;;;14.07;11.00;;;15.70;93.40;;;;;;5027639;28;20049;-77
2021/10/19 10:35:24;;;;;;;14.27;10.55;;;15.90;93.40;;;;;;5009103;28;20119;-77
2021/10/19 10:38:08;;;;;;;12.85;10.13;;;15.90;93.40;;;;;;5008548;28;20041;-76
2021/10/19 10:40:56;;;;;;;12.82;9.73;;;15.90;93.30;;;;;;5007647;28;20156;-77
2021/10/19 10:43:55;;;;;;;13.48;9.48;;;16.00;93.40;;;;;;5008244;28;20050;-76
2021/10/19 10:46:41;;;;;;;13.80;10.30;;;16.20;93.40;;;;;;5024799;28;20095;-76
2021/10/19 10:49:25;;;;;;;12.38;9.65;;;16.30;93.20;;;;;;5023740;28;20044;-77
2021/10/19 10:52:15;;;;;;;11.20;9.13;;;16.30;93.20;;;;;;5011045;28;20520;-77
2021/10/19 10:54:59;;;;;;;10.40;9.07;;;16.30;93.10;;;;;;5007065;28;20413;-76
2021/10/19 10:57:44;;;;;;;10.90;9.30;;;16.30;93.20;;;;;;5007642;28;20068;-75
2021/10/19 11:00:30;;;;;;;10.20;8.90;;;16.30;93.10;;;;;;5023166;28;20040;-76
2021/10/19 11:03:17;;;;;;;10.30;8.50;;;16.10;93.50;;;;;;5008807;28;20042;-76
2021/10/19 11:06:01;;;;;;;12.15;9.15;;;16.10;93.60;;;;;;5008179;28;20413;-77
2021/10/19 11:08:48;;;;;;;10.48;8.45;;;16.20;93.80;;;;;;5025742;28;20397;-77
2021/10/19 11:11:38;;;;;;;12.25;9.27;;;16.30;93.70;;;;;;4996578;28;20069;-77
2021/10/19 11:14:24;;;;;;;12.95;8.95;;;16.30;93.80;;;;;;4996732;28;20060;-76
2021/10/19 11:17:09;;;;;;;11.75;9.00;;;16.40;93.50;;;;;;4995279;28;20040;-76
2021/10/19 11:19:56;;;;;;;11.57;9.40;;;16.50;93.60;;;;;;5009304;28;20040;-78
2021/10/19 11:22:41;;;;;;;13.73;8.70;;;16.50;94.00;;;;;;5008653;28;20033;-78
2021/10/19 11:25:25;;;;;;;12.27;9.05;;;16.50;93.90;;;;;;5009578;28;20033;-76
2021/10/19 11:28:09;;;;;;;11.05;8.80;;;16.60;93.80;;;;;;5011227;28;20116;-78
2021/10/19 11:30:54;;;;;;;10.88;9.10;;;16.60;93.90;;;;;;5010723;28;20060;-77
2021/10/19 11:33:40;;;;;;;9.87;8.60;;;16.60;94.10;;;;;;4982567;28;20049;-78
2021/10/19 11:36:25;;;;;;;11.43;7.95;;;16.70;94.10;;;;;;5011853;28;20263;-77
2021/10/19 11:39:14;;;;;;;11.43;7.82;;;16.70;94.10;;;;;;5027029;28;20114;-78
2021/10/19 11:42:01;;;;;;;9.65;8.00;;;16.60;94.40;;;;;;5009548;28;20057;-77
2021/10/19 11:44:45;;;;;;;10.27;7.65;;;16.70;94.50;;;;;;4985577;28;20504;-77
2021/10/19 11:47:40;;;;;;;;;;;16.70;94.50;;;;;;5024584;28;20560;-77
2021/10/19 11:50:28;;;;;;;9.68;7.57;;;16.70;94.70;;;;;;5023917;28;19920;-77
2021/10/19 11:53:12;;;;;;;12.10;7.63;;;16.70;94.70;;;;;;5023571;28;20036;-77
2021/10/19 11:56:01;;;;;;;17.52;7.15;;;16.70;94.80;;;;;;5024225;28;20068;-79
2021/10/19 11:58:53;;;;;;;10.82;7.47;;;16.70;94.80;;;;;;5011324;28;20097;-80
2021/10/19 12:01:40;;;;;;;11.75;7.18;;;16.60;95.00;;;;;;5011743;28;20093;-79
2021/10/19 12:04:26;;;;;;;12.40;6.88;;;16.60;95.20;;;;;;5016770;28;20065;-79
2021/10/19 12:07:13;;;;;;;8.10;6.60;;;16.70;95.30;;;;;;4987558;28;20069;-80
2021/10/19 12:10:10;;;;;;;11.25;6.90;;;16.60;95.50;;;;;;4997781;28;20148;-78
2021/10/19 12:12:57;;;;;;;7.90;6.53;;;16.60;95.60;;;;;;5024590;28;20032;-79
2021/10/19 12:15:41;;;;;;;8.30;6.85;;;16.50;95.60;;;;;;5009453;28;20084;-79
2021/10/19 12:18:25;;;;;;;8.55;6.53;;;16.50;95.80;;;;;;5007444;28;20096;-80
2021/10/19 12:21:14;;;;;;;8.20;6.63;;;16.50;95.90;;;;;;5008923;28;20101;-80
2021/10/19 12:24:01;;;;;;;7.70;6.25;;;16.50;96.00;;;;;;4999429;28;20036;-82
2021/10/19 12:26:46;;;;;;;9.20;6.25;;;16.50;96.20;;;;;;5010262;28;20409;-80
2021/10/19 12:29:32;;;;;;;10.15;5.95;;;16.50;96.30;;;;;;5023568;28;20041;-79
2021/10/19 12:32:17;;;;;;;9.15;6.50;;;16.50;96.50;;;;;;5008146;28;20041;-80
2021/10/19 12:35:03;;;;;;;8.73;5.65;;;16.50;96.50;;;;;;4993755;28;20036;-79
2021/10/19 12:37:47;;;;;;;6.65;5.22;;;16.40;96.60;;;;;;5007765;28;20045;-80
2021/10/19 12:40:43;;;;;;;5.60;4.68;;;16.40;97.00;;;;;;4995409;28;20094;-79
2021/10/19 12:43:27;;;;;;;5.25;4.40;;;16.30;97.10;;;;;;5023549;28;20076;-80
2021/10/19 12:46:11;;;;;;;6.13;4.43;;;16.30;97.40;;;;;;4983414;28;20037;-79
2021/10/19 12:49:02;;;;;;;6.53;4.80;;;16.30;97.50;;;;;;5007487;28;20261;-79
2021/10/19 12:51:46;;;;;;;5.85;4.50;;;16.30;97.40;;;;;;5024324;28;20394;-80
2021/10/19 12:54:30;;;;;;;5.95;4.53;;;16.30;97.80;;;;;;4994088;28;20032;-79
2021/10/19 12:57:15;;;;;;;4.65;3.92;;;16.30;97.70;;;;;;5010946;28;20036;-79
2021/10/19 12:59:59;;;;;;;5.80;4.32;;;16.30;97.70;;;;;;4995308;28;20041;-79
2021/10/19 13:02:43;;;;;;;4.43;4.03;;;16.30;97.70;;;;;;5009320;28;20095;-80
2021/10/19 13:05:27;;;;;;;6.72;4.40;;;16.30;98.00;;;;;;5008406;28;20040;-78
2021/10/19 13:08:11;;;;;;;12.32;5.13;;;16.20;98.10;;;;;;5012801;28;20049;-80
2021/10/19 13:10:56;;;;;;;5.60;4.93;;;16.20;98.20;;;;;;5010875;28;20115;-80
2021/10/19 13:13:41;;;;;;;;;;;16.10;98.40;;;;;;5011940;28;20037;-80
2021/10/19 13:16:25;;;;;;;7.80;4.53;;;16.00;98.50;;;;;;5013849;28;19917;-80
2021/10/19 13:19:09;;;;;;;5.30;4.47;;;16.00;98.60;;;;;;4998738;28;20033;-80
2021/10/19 13:21:53;;;;;;;6.68;4.15;;;16.00;98.70;;;;;;5011798;28;20120;-80
2021/10/19 13:24:38;;;;;;;6.78;3.90;;;15.90;98.70;;;;;;4996469;28;20068;-80
2021/10/19 13:27:23;;;;;;;6.05;3.85;;;15.90;98.60;;;;;;5010656;28;20049;-79
2021/10/19 13:30:08;;;;;;;5.35;4.13;;;15.90;98.70;;;;;;4983124;28;20041;-80
2021/10/19 13:32:52;;;;;;;5.05;4.10;;;16.00;98.60;;;;;;5027216;28;20096;-76
2021/10/19 13:35:36;;;;;;;;;;;16.00;98.50;;;;;;4998629;28;20044;-77
2021/10/19 13:38:21;;;;;;;4.55;3.92;;;16.00;98.50;;;;;;5025090;28;20040;-76
2021/10/19 13:41:05;;;;;;;6.03;3.77;;;16.00;98.80;;;;;;5026314;28;20033;-76
2021/10/19 13:43:49;;;;;;;4.38;3.85;;;16.00;98.70;;;;;;5010573;28;20057;-75
2021/10/19 13:46:33;;;;;;;4.93;4.22;;;15.90;98.90;;;;;;5027537;28;20068;-74
2021/10/19 13:49:17;;;;;;;8.45;4.32;;;16.00;98.80;;;;;;5005916;28;20037;-77
2021/10/19 13:52:02;;;;;;;6.20;4.17;;;15.90;98.90;;;;;;4995787;28;20041;-76
2021/10/19 13:54:46;;;;;;;3.83;3.50;;;15.90;99.00;;;;;;5006115;28;20080;-77
2021/10/19 13:57:31;;;;;;;4.40;3.90;;;15.90;99.00;;;;;;5008612;28;20068;-76
2021/10/19 14:00:15;;;;;;;4.45;3.80;;;15.90;99.00;;;;;;5005635;28;20093;-80
2021/10/19 14:02:59;;;;;;;4.18;3.78;;;15.90;99.00;;;;;;5007212;28;20085;-80
2021/10/19 14:05:45;;;;;;;4.10;3.70;;;15.90;99.10;;;;;;5006475;28;20520;-78